Terminal Aerodrome Forecast
Issued by NWS

Home | Current Version | Previous Version | Graphics & Text | Print | Product List | Glossary On
Versions: 1 2 3 4 5 6 7 8 9 10 11 12 13 14 15 16 17 18 19
432
FTUS43 KBIS 240525
TAFDIK
TAF
KDIK 240525Z 2406/2506 15009KT P6SM SCT200
     FM241300 16022G30KT P6SM SCT250
     FM250000 19020G30KT P6SM BKN060
     FM250200 19015KT P6SM -SHRA OVC050=

USA.gov is the U.S. government's official web portal to all federal, state and local government web resources and services.